Terminal Aerodrome Forecast
Issued by NWS

Home | Current Version | Previous Version | Text Only | Print | Product List | Glossary On
Versions: 1 2 3 4 5 6 7 8 9 10 11 12 13 14 15 16 17 18 19 20 21 22 23 24 25 26 27 28
440
FTUS41 KOKX 201933 AAA
TAFSWF
TAF AMD
KSWF 201933Z 2020/2124 26008KT P6SM SCT060
     FM202300 VRB05KT 3SM BR SCT015 BKN250
     FM210300 VRB03KT 2SM BR SCT007 BKN015
     FM210600 VRB03KT 1/2SM FG BKN004
     FM211300 22006KT 2SM BR SCT005 BKN015
     FM211500 23008KT P6SM SCT015 SCT040
     FM211700 26012G20KT P6SM SCT015 BKN040
      AMD NOT SKED=

USA.gov is the U.S. government's official web portal to all federal, state and local government web resources and services.